KGLD/GLD METAR and TAF weather

Enter ICAO airport designator
Station Type Date Time Source
KGLD METAR 2021/02/27 21:53 UTC NOAA

KGLD 272153Z AUTO 33023G31KT 10SM CLR 11/M08 A2961 RMK AO2 PK WND 32031/2153 SLP031 T01111083


Station Type Date Time Source
KGLD Decoded METAR 2021/02/27 21:53 UTC NOAA

GOODLAND RENNER FIELD, KS, United States (KGLD) 39-22N 101-42W 1114M
Feb 27, 2021 - 04:53 PM EST / 2021.02.27 2153 UTC
Wind: from the NNW (330 degrees) at 26 MPH (23 KT) gusting to 36 MPH (31 KT):0
Visibility: 10 mile(s):0
Sky conditions: clear
Temperature: 52.0 F (11.1 C)
Dew Point: 17.1 F (-8.3 C)
Relative Humidity: 24%
Pressure (altimeter): 29.61 in. Hg (1002 hPa)
ob: KGLD 272153Z AUTO 33023G31KT 10SM CLR 11/M08 A2961 RMK AO2 PK WND 32031/2153 SLP031 T01111083
cycle: 22

Station Type Date Time Source
KGLD TAF 2021/02/27 18:42 UTC NOAA

TAF KGLD 271740Z 2718/2818 25004KT P6SM FEW250
FM272000 29020G30KT P6SM FEW250
FM272300 32018G28KT P6SM FEW200
FM280200 32012KT P6SM FEW250
FM281500 34018G26KT P6SM FEW250
FM281700 34016KT P6SM FEW250

Example: see airport list